sensor_id;sensor_type;location;lat;lon;timestamp;pressure;altitude;pressure_sealevel;temperature
71807;BMP280;59655;42.590;23.364;2023-07-20T00:01:14;91379.75;;;21.48
71807;BMP280;59655;42.590;23.364;2023-07-20T00:03:40;91383.94;;;21.51
71807;BMP280;59655;42.590;23.364;2023-07-20T00:06:05;91387.84;;;21.48
71807;BMP280;59655;42.590;23.364;2023-07-20T00:08:31;91385.78;;;21.46
71807;BMP280;59655;42.590;23.364;2023-07-20T00:10:56;91379.16;;;21.49
71807;BMP280;59655;42.590;23.364;2023-07-20T00:13:22;91379.59;;;21.44
71807;BMP280;59655;42.590;23.364;2023-07-20T00:15:47;91386.41;;;21.45
71807;BMP280;59655;42.590;23.364;2023-07-20T00:18:13;91377.16;;;21.50
71807;BMP280;59655;42.590;23.364;2023-07-20T00:20:39;91369.22;;;21.54
71807;BMP280;59655;42.590;23.364;2023-07-20T00:23:05;91366.53;;;21.54
71807;BMP280;59655;42.590;23.364;2023-07-20T00:25:30;91370.44;;;21.51
71807;BMP280;59655;42.590;23.364;2023-07-20T00:27:55;91365.19;;;21.55
71807;BMP280;59655;42.590;23.364;2023-07-20T00:30:23;91356.31;;;21.53
71807;BMP280;59655;42.590;23.364;2023-07-20T00:32:48;91350.94;;;21.53
71807;BMP280;59655;42.590;23.364;2023-07-20T00:35:14;91354.84;;;21.49
71807;BMP280;59655;42.590;23.364;2023-07-20T00:37:39;91353.84;;;21.41
71807;BMP280;59655;42.590;23.364;2023-07-20T00:40:06;91346.66;;;21.47
71807;BMP280;59655;42.590;23.364;2023-07-20T00:42:34;91348.91;;;21.53
71807;BMP280;59655;42.590;23.364;2023-07-20T00:45:00;91351.00;;;21.55
71807;BMP280;59655;42.590;23.364;2023-07-20T00:47:26;91351.09;;;21.57
71807;BMP280;59655;42.590;23.364;2023-07-20T00:49:52;91343.00;;;21.57
71807;BMP280;59655;42.590;23.364;2023-07-20T00:52:19;91337.97;;;21.49
71807;BMP280;59655;42.590;23.364;2023-07-20T00:54:45;91330.56;;;21.49
71807;BMP280;59655;42.590;23.364;2023-07-20T00:57:14;91327.31;;;21.53
71807;BMP280;59655;42.590;23.364;2023-07-20T00:59:40;91321.59;;;21.45
71807;BMP280;59655;42.590;23.364;2023-07-20T01:02:05;91327.59;;;21.43
71807;BMP280;59655;42.590;23.364;2023-07-20T01:04:31;91331.78;;;21.31
71807;BMP280;59655;42.590;23.364;2023-07-20T01:10:02;91328.72;;;21.38
71807;BMP280;59655;42.590;23.364;2023-07-20T01:12:52;91325.69;;;21.30
71807;BMP280;59655;42.590;23.364;2023-07-20T01:15:18;91327.41;;;21.21
71807;BMP280;59655;42.590;23.364;2023-07-20T01:17:44;91326.59;;;21.19
71807;BMP280;59655;42.590;23.364;2023-07-20T01:20:13;91329.88;;;21.17
71807;BMP280;59655;42.590;23.364;2023-07-20T01:31:21;91318.66;;;21.39
71807;BMP280;59655;42.590;23.364;2023-07-20T01:33:48;91317.75;;;21.34
71807;BMP280;59655;42.590;23.364;2023-07-20T01:36:17;91320.94;;;21.29
71807;BMP280;59655;42.590;23.364;2023-07-20T01:38:43;91314.84;;;21.28
71807;BMP280;59655;42.590;23.364;2023-07-20T01:41:10;91319.38;;;21.23
71807;BMP280;59655;42.590;23.364;2023-07-20T01:43:37;91319.97;;;21.22
71807;BMP280;59655;42.590;23.364;2023-07-20T01:46:04;91321.63;;;21.13
71807;BMP280;59655;42.590;23.364;2023-07-20T01:48:29;91315.72;;;21.17
71807;BMP280;59655;42.590;23.364;2023-07-20T01:50:56;91307.47;;;21.13
71807;BMP280;59655;42.590;23.364;2023-07-20T01:53:22;91308.50;;;21.06
71807;BMP280;59655;42.590;23.364;2023-07-20T01:55:47;91321.75;;;20.99
71807;BMP280;59655;42.590;23.364;2023-07-20T01:58:13;91312.44;;;20.87
71807;BMP280;59655;42.590;23.364;2023-07-20T02:00:38;91314.50;;;21.04
71807;BMP280;59655;42.590;23.364;2023-07-20T02:03:04;91318.75;;;21.09
71807;BMP280;59655;42.590;23.364;2023-07-20T02:05:29;91314.25;;;21.14
71807;BMP280;59655;42.590;23.364;2023-07-20T02:07:55;91305.59;;;21.17
71807;BMP280;59655;42.590;23.364;2023-07-20T02:10:20;91303.78;;;21.22
71807;BMP280;59655;42.590;23.364;2023-07-20T02:12:46;91304.25;;;21.16
71807;BMP280;59655;42.590;23.364;2023-07-20T02:15:13;91302.66;;;21.11
71807;BMP280;59655;42.590;23.364;2023-07-20T02:17:39;91301.28;;;20.94
71807;BMP280;59655;42.590;23.364;2023-07-20T02:20:07;91310.78;;;20.95
71807;BMP280;59655;42.590;23.364;2023-07-20T02:22:34;91308.09;;;20.95
71807;BMP280;59655;42.590;23.364;2023-07-20T02:24:59;91299.47;;;20.99
71807;BMP280;59655;42.590;23.364;2023-07-20T02:27:25;91297.22;;;20.93
71807;BMP280;59655;42.590;23.364;2023-07-20T02:29:50;91291.91;;;20.95
71807;BMP280;59655;42.590;23.364;2023-07-20T02:32:15;91288.00;;;20.98
71807;BMP280;59655;42.590;23.364;2023-07-20T02:34:41;91296.69;;;20.97
71807;BMP280;59655;42.590;23.364;2023-07-20T02:37:06;91296.09;;;20.83
71807;BMP280;59655;42.590;23.364;2023-07-20T02:39:32;91281.31;;;20.84
71807;BMP280;59655;42.590;23.364;2023-07-20T02:41:57;91283.38;;;20.85
71807;BMP280;59655;42.590;23.364;2023-07-20T02:44:22;91282.84;;;20.89
71807;BMP280;59655;42.590;23.364;2023-07-20T02:46:48;91283.56;;;20.89
71807;BMP280;59655;42.590;23.364;2023-07-20T02:49:15;91284.19;;;20.88
71807;BMP280;59655;42.590;23.364;2023-07-20T02:51:40;91277.47;;;20.89
71807;BMP280;59655;42.590;23.364;2023-07-20T02:54:06;91281.63;;;20.92
71807;BMP280;59655;42.590;23.364;2023-07-20T02:56:31;91276.91;;;20.92
71807;BMP280;59655;42.590;23.364;2023-07-20T02:58:57;91275.63;;;20.93
71807;BMP280;59655;42.590;23.364;2023-07-20T03:01:22;91274.88;;;20.91
71807;BMP280;59655;42.590;23.364;2023-07-20T03:03:48;91270.75;;;20.90
71807;BMP280;59655;42.590;23.364;2023-07-20T03:06:14;91275.41;;;20.87
71807;BMP280;59655;42.590;23.364;2023-07-20T03:08:40;91274.00;;;20.70
71807;BMP280;59655;42.590;23.364;2023-07-20T03:11:07;91272.88;;;20.75
71807;BMP280;59655;42.590;23.364;2023-07-20T03:13:33;91268.94;;;20.78
71807;BMP280;59655;42.590;23.364;2023-07-20T03:15:58;91276.78;;;20.72
71807;BMP280;59655;42.590;23.364;2023-07-20T03:18:23;91282.34;;;20.61
71807;BMP280;59655;42.590;23.364;2023-07-20T03:20:49;91273.19;;;20.52
71807;BMP280;59655;42.590;23.364;2023-07-20T03:23:14;91281.84;;;20.48
71807;BMP280;59655;42.590;23.364;2023-07-20T03:25:40;91282.44;;;20.63
71807;BMP280;59655;42.590;23.364;2023-07-20T03:28:06;91285.22;;;20.65
71807;BMP280;59655;42.590;23.364;2023-07-20T03:30:32;91284.69;;;20.68
71807;BMP280;59655;42.590;23.364;2023-07-20T03:32:57;91292.88;;;20.70
71807;BMP280;59655;42.590;23.364;2023-07-20T03:35:22;91292.44;;;20.76
71807;BMP280;59655;42.590;23.364;2023-07-20T03:37:48;91289.31;;;20.82
71807;BMP280;59655;42.590;23.364;2023-07-20T03:40:14;91298.16;;;20.84
71807;BMP280;59655;42.590;23.364;2023-07-20T03:42:40;91296.88;;;20.85
71807;BMP280;59655;42.590;23.364;2023-07-20T03:45:06;91286.59;;;20.82
71807;BMP280;59655;42.590;23.364;2023-07-20T03:47:31;91289.56;;;20.88
71807;BMP280;59655;42.590;23.364;2023-07-20T03:49:57;91287.03;;;20.92
71807;BMP280;59655;42.590;23.364;2023-07-20T03:52:22;91289.81;;;20.94
71807;BMP280;59655;42.590;23.364;2023-07-20T03:54:49;91301.28;;;20.94
71807;BMP280;59655;42.590;23.364;2023-07-20T03:57:16;91296.63;;;20.95
71807;BMP280;59655;42.590;23.364;2023-07-20T03:59:45;91298.94;;;20.87
71807;BMP280;59655;42.590;23.364;2023-07-20T04:02:10;91303.56;;;20.84
71807;BMP280;59655;42.590;23.364;2023-07-20T04:04:36;91312.09;;;20.94
71807;BMP280;59655;42.590;23.364;2023-07-20T04:07:01;91317.47;;;20.94
71807;BMP280;59655;42.590;23.364;2023-07-20T04:09:27;91314.09;;;20.94
71807;BMP280;59655;42.590;23.364;2023-07-20T04:11:52;91312.22;;;20.96
71807;BMP280;59655;42.590;23.364;2023-07-20T04:14:17;91301.56;;;21.00
71807;BMP280;59655;42.590;23.364;2023-07-20T04:16:43;91295.72;;;21.06
71807;BMP280;59655;42.590;23.364;2023-07-20T04:19:08;91296.41;;;21.07
71807;BMP280;59655;42.590;23.364;2023-07-20T04:21:40;91292.41;;;21.08
71807;BMP280;59655;42.590;23.364;2023-07-20T04:24:06;91287.78;;;21.10
71807;BMP280;59655;42.590;23.364;2023-07-20T04:26:31;91284.56;;;21.14
71807;BMP280;59655;42.590;23.364;2023-07-20T04:28:57;91284.47;;;21.12
71807;BMP280;59655;42.590;23.364;2023-07-20T04:31:24;91286.47;;;21.11
71807;BMP280;59655;42.590;23.364;2023-07-20T04:33:50;91281.88;;;21.14
71807;BMP280;59655;42.590;23.364;2023-07-20T04:36:15;91277.47;;;21.22
71807;BMP280;59655;42.590;23.364;2023-07-20T04:38:47;91278.25;;;21.25
71807;BMP280;59655;42.590;23.364;2023-07-20T04:41:12;91281.59;;;21.23
71807;BMP280;59655;42.590;23.364;2023-07-20T04:43:42;91275.63;;;21.27
71807;BMP280;59655;42.590;23.364;2023-07-20T04:46:08;91270.78;;;21.23
71807;BMP280;59655;42.590;23.364;2023-07-20T04:48:34;91269.63;;;21.29
71807;BMP280;59655;42.590;23.364;2023-07-20T04:50:59;91277.19;;;21.32
71807;BMP280;59655;42.590;23.364;2023-07-20T04:53:24;91277.19;;;21.32
71807;BMP280;59655;42.590;23.364;2023-07-20T04:55:50;91273.91;;;21.34
71807;BMP280;59655;42.590;23.364;2023-07-20T04:58:17;91272.50;;;21.33
71807;BMP280;59655;42.590;23.364;2023-07-20T05:00:43;91275.97;;;21.35
71807;BMP280;59655;42.590;23.364;2023-07-20T05:03:08;91273.38;;;21.37
71807;BMP280;59655;42.590;23.364;2023-07-20T05:05:34;91271.28;;;21.36
71807;BMP280;59655;42.590;23.364;2023-07-20T05:07:59;91268.13;;;21.41
71807;BMP280;59655;42.590;23.364;2023-07-20T05:10:25;91268.88;;;21.44
71807;BMP280;59655;42.590;23.364;2023-07-20T05:12:50;91270.44;;;21.49
71807;BMP280;59655;42.590;23.364;2023-07-20T05:15:16;91274.06;;;21.56
71807;BMP280;59655;42.590;23.364;2023-07-20T05:17:41;91275.47;;;21.57
71807;BMP280;59655;42.590;23.364;2023-07-20T05:20:07;91275.03;;;21.62
71807;BMP280;59655;42.590;23.364;2023-07-20T05:22:35;91278.94;;;21.59
71807;BMP280;59655;42.590;23.364;2023-07-20T05:25:01;91270.97;;;21.63
71807;BMP280;59655;42.590;23.364;2023-07-20T05:27:27;91275.78;;;21.65
71807;BMP280;59655;42.590;23.364;2023-07-20T05:29:52;91273.22;;;21.69
71807;BMP280;59655;42.590;23.364;2023-07-20T05:32:18;91279.41;;;21.71
71807;BMP280;59655;42.590;23.364;2023-07-20T05:34:44;91283.66;;;21.77
71807;BMP280;59655;42.590;23.364;2023-07-20T05:37:09;91286.34;;;21.77
71807;BMP280;59655;42.590;23.364;2023-07-20T05:39:36;91288.47;;;21.78
71807;BMP280;59655;42.590;23.364;2023-07-20T05:42:01;91289.06;;;21.77
71807;BMP280;59655;42.590;23.364;2023-07-20T05:44:27;91298.25;;;21.87
71807;BMP280;59655;42.590;23.364;2023-07-20T05:46:52;91297.09;;;21.92
71807;BMP280;59655;42.590;23.364;2023-07-20T05:49:18;91302.47;;;21.92
71807;BMP280;59655;42.590;23.364;2023-07-20T05:51:43;91300.66;;;21.97
71807;BMP280;59655;42.590;23.364;2023-07-20T05:54:08;91303.50;;;22.01
71807;BMP280;59655;42.590;23.364;2023-07-20T05:56:34;91302.81;;;22.01
71807;BMP280;59655;42.590;23.364;2023-07-20T05:58:59;91310.38;;;22.04
71807;BMP280;59655;42.590;23.364;2023-07-20T06:01:24;91313.94;;;22.09
71807;BMP280;59655;42.590;23.364;2023-07-20T06:03:52;91309.28;;;22.11
71807;BMP280;59655;42.590;23.364;2023-07-20T06:06:18;91300.03;;;22.16
71807;BMP280;59655;42.590;23.364;2023-07-20T06:08:44;91304.34;;;22.23
71807;BMP280;59655;42.590;23.364;2023-07-20T06:11:10;91301.94;;;22.32
71807;BMP280;59655;42.590;23.364;2023-07-20T06:13:35;91308.78;;;22.35
71807;BMP280;59655;42.590;23.364;2023-07-20T06:16:00;91306.19;;;22.37
71807;BMP280;59655;42.590;23.364;2023-07-20T06:18:26;91308.88;;;22.37
71807;BMP280;59655;42.590;23.364;2023-07-20T06:20:52;91308.22;;;22.38
71807;BMP280;59655;42.590;23.364;2023-07-20T06:23:21;91299.59;;;22.42
71807;BMP280;59655;42.590;23.364;2023-07-20T06:25:46;91288.69;;;22.40
71807;BMP280;59655;42.590;23.364;2023-07-20T06:28:12;91286.28;;;22.48
71807;BMP280;59655;42.590;23.364;2023-07-20T06:30:38;91289.69;;;22.48
71807;BMP280;59655;42.590;23.364;2023-07-20T06:33:04;91272.97;;;22.54
71807;BMP280;59655;42.590;23.364;2023-07-20T06:35:30;91281.38;;;22.62
71807;BMP280;59655;42.590;23.364;2023-07-20T06:37:55;91286.31;;;22.68
71807;BMP280;59655;42.590;23.364;2023-07-20T06:40:21;91290.47;;;22.71
71807;BMP280;59655;42.590;23.364;2023-07-20T06:42:46;91285.81;;;22.73
71807;BMP280;59655;42.590;23.364;2023-07-20T06:45:12;91286.03;;;22.80
71807;BMP280;59655;42.590;23.364;2023-07-20T06:47:39;91278.75;;;22.84
71807;BMP280;59655;42.590;23.364;2023-07-20T06:50:08;91279.56;;;22.89
71807;BMP280;59655;42.590;23.364;2023-07-20T06:52:34;91296.09;;;22.97
71807;BMP280;59655;42.590;23.364;2023-07-20T06:54:59;91293.53;;;23.01
71807;BMP280;59655;42.590;23.364;2023-07-20T06:57:25;91289.69;;;23.08
71807;BMP280;59655;42.590;23.364;2023-07-20T06:59:51;91285.84;;;23.15
71807;BMP280;59655;42.590;23.364;2023-07-20T07:02:16;91294.25;;;23.24
71807;BMP280;59655;42.590;23.364;2023-07-20T07:04:42;91305.91;;;23.28
71807;BMP280;59655;42.590;23.364;2023-07-20T07:07:07;91308.19;;;23.36
71807;BMP280;59655;42.590;23.364;2023-07-20T07:09:34;91307.03;;;23.41
71807;BMP280;59655;42.590;23.364;2023-07-20T07:11:59;91305.75;;;23.44
71807;BMP280;59655;42.590;23.364;2023-07-20T07:14:24;91312.00;;;23.49
71807;BMP280;59655;42.590;23.364;2023-07-20T07:16:50;91318.09;;;23.49
71807;BMP280;59655;42.590;23.364;2023-07-20T07:19:15;91336.41;;;23.49
71807;BMP280;59655;42.590;23.364;2023-07-20T07:21:43;91342.28;;;23.43
71807;BMP280;59655;42.590;23.364;2023-07-20T07:24:09;91346.25;;;23.40
71807;BMP280;59655;42.590;23.364;2023-07-20T07:26:39;91354.38;;;23.40
71807;BMP280;59655;42.590;23.364;2023-07-20T07:29:07;91361.88;;;23.41
71807;BMP280;59655;42.590;23.364;2023-07-20T07:31:36;91360.66;;;23.44
71807;BMP280;59655;42.590;23.364;2023-07-20T07:34:07;91360.06;;;23.48
71807;BMP280;59655;42.590;23.364;2023-07-20T07:36:33;91371.06;;;23.52
71807;BMP280;59655;42.590;23.364;2023-07-20T07:38:59;91362.78;;;23.48
71807;BMP280;59655;42.590;23.364;2023-07-20T07:41:25;91361.66;;;23.55
71807;BMP280;59655;42.590;23.364;2023-07-20T07:43:56;91355.03;;;23.60
71807;BMP280;59655;42.590;23.364;2023-07-20T07:46:24;91353.00;;;23.61
71807;BMP280;59655;42.590;23.364;2023-07-20T07:48:57;91346.97;;;23.62
71807;BMP280;59655;42.590;23.364;2023-07-20T07:51:33;91355.81;;;23.63
71807;BMP280;59655;42.590;23.364;2023-07-20T07:54:06;91357.94;;;23.66
71807;BMP280;59655;42.590;23.364;2023-07-20T07:56:31;91338.34;;;23.68
71807;BMP280;59655;42.590;23.364;2023-07-20T07:58:56;91336.41;;;23.70
71807;BMP280;59655;42.590;23.364;2023-07-20T08:01:22;91325.69;;;23.75
71807;BMP280;59655;42.590;23.364;2023-07-20T08:03:47;91333.19;;;23.76
71807;BMP280;59655;42.590;23.364;2023-07-20T08:06:13;91321.72;;;23.78
71807;BMP280;59655;42.590;23.364;2023-07-20T08:08:39;91314.94;;;23.79
71807;BMP280;59655;42.590;23.364;2023-07-20T08:11:04;91318.44;;;23.81
71807;BMP280;59655;42.590;23.364;2023-07-20T08:13:30;91342.28;;;23.85
71807;BMP280;59655;42.590;23.364;2023-07-20T08:15:56;91351.09;;;23.85
71807;BMP280;59655;42.590;23.364;2023-07-20T08:18:22;91345.81;;;23.89
71807;BMP280;59655;42.590;23.364;2023-07-20T08:20:47;91368.88;;;23.90
71807;BMP280;59655;42.590;23.364;2023-07-20T08:23:14;91363.19;;;23.82
71807;BMP280;59655;42.590;23.364;2023-07-20T08:25:40;91358.09;;;23.92
71807;BMP280;59655;42.590;23.364;2023-07-20T08:28:13;91361.38;;;23.89
71807;BMP280;59655;42.590;23.364;2023-07-20T08:30:46;91365.53;;;23.92
71807;BMP280;59655;42.590;23.364;2023-07-20T08:33:16;91359.16;;;23.83
71807;BMP280;59655;42.590;23.364;2023-07-20T08:35:43;91355.38;;;23.92
71807;BMP280;59655;42.590;23.364;2023-07-20T08:38:08;91357.56;;;23.98
71807;BMP280;59655;42.590;23.364;2023-07-20T08:40:40;91355.13;;;23.84
71807;BMP280;59655;42.590;23.364;2023-07-20T08:43:05;91355.13;;;23.84
71807;BMP280;59655;42.590;23.364;2023-07-20T08:45:33;91355.81;;;23.85
71807;BMP280;59655;42.590;23.364;2023-07-20T08:48:00;91350.13;;;23.77
71807;BMP280;59655;42.590;23.364;2023-07-20T08:50:28;91345.56;;;23.81
71807;BMP280;59655;42.590;23.364;2023-07-20T08:52:56;91348.31;;;23.83
71807;BMP280;59655;42.590;23.364;2023-07-20T08:55:23;91354.16;;;23.76
71807;BMP280;59655;42.590;23.364;2023-07-20T08:57:56;91340.00;;;23.77
71807;BMP280;59655;42.590;23.364;2023-07-20T09:00:23;91340.50;;;23.71
71807;BMP280;59655;42.590;23.364;2023-07-20T09:02:55;91346.13;;;23.78
71807;BMP280;59655;42.590;23.364;2023-07-20T09:05:23;91336.69;;;23.81
71807;BMP280;59655;42.590;23.364;2023-07-20T09:07:49;91325.03;;;23.76
71807;BMP280;59655;42.590;23.364;2023-07-20T09:10:15;91327.13;;;23.78
71807;BMP280;59655;42.590;23.364;2023-07-20T09:12:42;91328.66;;;23.83
71807;BMP280;59655;42.590;23.364;2023-07-20T09:15:09;91327.94;;;23.82
71807;BMP280;59655;42.590;23.364;2023-07-20T09:17:34;91346.97;;;23.84
71807;BMP280;59655;42.590;23.364;2023-07-20T09:20:04;91356.44;;;23.83
71807;BMP280;59655;42.590;23.364;2023-07-20T09:22:36;91342.31;;;23.87
71807;BMP280;59655;42.590;23.364;2023-07-20T09:25:12;91335.31;;;23.80
71807;BMP280;59655;42.590;23.364;2023-07-20T09:27:47;91332.91;;;23.90
71807;BMP280;59655;42.590;23.364;2023-07-20T09:30:14;91333.03;;;23.94
71807;BMP280;59655;42.590;23.364;2023-07-20T09:32:51;91343.94;;;23.96
71807;BMP280;59655;42.590;23.364;2023-07-20T09:35:18;91332.97;;;23.92
71807;BMP280;59655;42.590;23.364;2023-07-20T09:37:50;91343.38;;;24.00
71807;BMP280;59655;42.590;23.364;2023-07-20T09:40:18;91337.41;;;24.03
71807;BMP280;59655;42.590;23.364;2023-07-20T09:42:43;91344.97;;;24.07
71807;BMP280;59655;42.590;23.364;2023-07-20T09:45:09;91346.28;;;24.06
71807;BMP280;59655;42.590;23.364;2023-07-20T09:47:39;91338.91;;;24.08
71807;BMP280;59655;42.590;23.364;2023-07-20T09:50:06;91330.84;;;24.10
71807;BMP280;59655;42.590;23.364;2023-07-20T09:52:41;91324.13;;;24.13
71807;BMP280;59655;42.590;23.364;2023-07-20T09:55:07;91323.56;;;24.17
71807;BMP280;59655;42.590;23.364;2023-07-20T09:57:33;91321.09;;;24.25
71807;BMP280;59655;42.590;23.364;2023-07-20T09:59:59;91324.59;;;24.30
71807;BMP280;59655;42.590;23.364;2023-07-20T10:02:32;91312.84;;;24.45
71807;BMP280;59655;42.590;23.364;2023-07-20T10:05:02;91305.69;;;24.56
71807;BMP280;59655;42.590;23.364;2023-07-20T10:07:30;91303.72;;;24.58
71807;BMP280;59655;42.590;23.364;2023-07-20T10:09:56;91308.03;;;24.67
71807;BMP280;59655;42.590;23.364;2023-07-20T10:12:25;91311.47;;;24.70
71807;BMP280;59655;42.590;23.364;2023-07-20T10:15:17;91314.28;;;24.72
71807;BMP280;59655;42.590;23.364;2023-07-20T10:17:53;91322.47;;;24.74
71807;BMP280;59655;42.590;23.364;2023-07-20T10:20:23;91318.53;;;24.79
71807;BMP280;59655;42.590;23.364;2023-07-20T10:22:52;91321.44;;;24.87
71807;BMP280;59655;42.590;23.364;2023-07-20T10:25:18;91321.63;;;24.93
71807;BMP280;59655;42.590;23.364;2023-07-20T10:27:44;91320.38;;;24.99
71807;BMP280;59655;42.590;23.364;2023-07-20T10:30:10;91324.59;;;25.04
71807;BMP280;59655;42.590;23.364;2023-07-20T10:32:35;91325.13;;;24.98
71807;BMP280;59655;42.590;23.364;2023-07-20T10:35:01;91340.09;;;24.99
71807;BMP280;59655;42.590;23.364;2023-07-20T10:37:50;91317.47;;;24.90
71807;BMP280;59655;42.590;23.364;2023-07-20T10:40:38;91322.41;;;24.98
71807;BMP280;59655;42.590;23.364;2023-07-20T10:43:06;91317.63;;;24.97
71807;BMP280;59655;42.590;23.364;2023-07-20T10:45:36;91309.63;;;25.03
71807;BMP280;59655;42.590;23.364;2023-07-20T10:48:16;91315.84;;;25.07
71807;BMP280;59655;42.590;23.364;2023-07-20T10:50:42;91313.84;;;25.08
71807;BMP280;59655;42.590;23.364;2023-07-20T10:53:16;91297.59;;;25.10
71807;BMP280;59655;42.590;23.364;2023-07-20T10:55:42;91274.56;;;25.13
71807;BMP280;59655;42.590;23.364;2023-07-20T10:58:13;91267.88;;;25.16
71807;BMP280;59655;42.590;23.364;2023-07-20T11:01:01;91269.19;;;25.15
71807;BMP280;59655;42.590;23.364;2023-07-20T11:03:28;91285.44;;;25.13
71807;BMP280;59655;42.590;23.364;2023-07-20T11:05:54;91290.88;;;25.13
71807;BMP280;59655;42.590;23.364;2023-07-20T11:08:41;91267.25;;;25.17
71807;BMP280;59655;42.590;23.364;2023-07-20T11:11:24;91244.97;;;25.23
71807;BMP280;59655;42.590;23.364;2023-07-20T11:14:01;91253.25;;;25.29
71807;BMP280;59655;42.590;23.364;2023-07-20T11:16:45;91245.25;;;25.35
71807;BMP280;59655;42.590;23.364;2023-07-20T11:19:24;91269.16;;;25.41
71807;BMP280;59655;42.590;23.364;2023-07-20T11:21:51;91265.09;;;25.42
71807;BMP280;59655;42.590;23.364;2023-07-20T11:24:17;91267.84;;;25.44
71807;BMP280;59655;42.590;23.364;2023-07-20T11:26:53;91260.94;;;25.39
71807;BMP280;59655;42.590;23.364;2023-07-20T11:29:21;91260.41;;;25.44
71807;BMP280;59655;42.590;23.364;2023-07-20T11:31:47;91261.22;;;25.51
71807;BMP280;59655;42.590;23.364;2023-07-20T11:34:15;91254.53;;;25.56
71807;BMP280;59655;42.590;23.364;2023-07-20T11:36:41;91252.56;;;25.59
71807;BMP280;59655;42.590;23.364;2023-07-20T11:39:13;91250.34;;;25.51
71807;BMP280;59655;42.590;23.364;2023-07-20T11:41:44;91244.25;;;25.53
71807;BMP280;59655;42.590;23.364;2023-07-20T11:44:10;91244.34;;;25.57
71807;BMP280;59655;42.590;23.364;2023-07-20T11:46:41;91235.59;;;25.60
71807;BMP280;59655;42.590;23.364;2023-07-20T11:49:10;91228.88;;;25.63
71807;BMP280;59655;42.590;23.364;2023-07-20T11:51:36;91231.66;;;25.65
71807;BMP280;59655;42.590;23.364;2023-07-20T11:54:04;91230.34;;;25.68
71807;BMP280;59655;42.590;23.364;2023-07-20T11:56:30;91224.91;;;25.68
71807;BMP280;59655;42.590;23.364;2023-07-20T11:58:57;91215.38;;;25.67
71807;BMP280;59655;42.590;23.364;2023-07-20T12:01:25;91212.84;;;25.76
71807;BMP280;59655;42.590;23.364;2023-07-20T12:03:55;91209.56;;;25.81
71807;BMP280;59655;42.590;23.364;2023-07-20T12:06:25;91206.25;;;25.87
71807;BMP280;59655;42.590;23.364;2023-07-20T12:08:54;91209.72;;;25.89
71807;BMP280;59655;42.590;23.364;2023-07-20T12:14:00;91201.66;;;25.93
71807;BMP280;59655;42.590;23.364;2023-07-20T12:16:29;91199.66;;;25.96
71807;BMP280;59655;42.590;23.364;2023-07-20T12:19:08;91199.75;;;26.00
71807;BMP280;59655;42.590;23.364;2023-07-20T12:21:36;91191.91;;;26.16
71807;BMP280;59655;42.590;23.364;2023-07-20T12:24:05;91182.53;;;26.24
71807;BMP280;59655;42.590;23.364;2023-07-20T12:26:32;91188.81;;;26.34
71807;BMP280;59655;42.590;23.364;2023-07-20T12:28:58;91181.69;;;26.53
71807;BMP280;59655;42.590;23.364;2023-07-20T12:31:23;91196.88;;;26.66
71807;BMP280;59655;42.590;23.364;2023-07-20T12:33:53;91178.41;;;27.03
71807;BMP280;59655;42.590;23.364;2023-07-20T12:36:20;91184.63;;;27.56
71807;BMP280;59655;42.590;23.364;2023-07-20T12:38:46;91167.47;;;27.47
71807;BMP280;59655;42.590;23.364;2023-07-20T12:41:12;91179.19;;;27.58
71807;BMP280;59655;42.590;23.364;2023-07-20T12:43:38;91178.22;;;27.90
71807;BMP280;59655;42.590;23.364;2023-07-20T12:46:05;91183.56;;;28.40
71807;BMP280;59655;42.590;23.364;2023-07-20T12:48:31;91196.97;;;28.89
71807;BMP280;59655;42.590;23.364;2023-07-20T12:50:56;91174.81;;;29.47
71807;BMP280;59655;42.590;23.364;2023-07-20T12:53:22;91175.72;;;29.99
71807;BMP280;59655;42.590;23.364;2023-07-20T12:55:47;91170.38;;;30.42
71807;BMP280;59655;42.590;23.364;2023-07-20T12:58:12;91169.03;;;30.79
71807;BMP280;59655;42.590;23.364;2023-07-20T13:00:38;91163.50;;;31.16
71807;BMP280;59655;42.590;23.364;2023-07-20T13:03:04;91173.09;;;31.39
71807;BMP280;59655;42.590;23.364;2023-07-20T13:05:30;91168.81;;;31.83
71807;BMP280;59655;42.590;23.364;2023-07-20T13:07:57;91160.44;;;32.08
71807;BMP280;59655;42.590;23.364;2023-07-20T13:10:23;91157.63;;;32.20
71807;BMP280;59655;42.590;23.364;2023-07-20T13:12:49;91165.13;;;32.27
71807;BMP280;59655;42.590;23.364;2023-07-20T13:15:14;91165.72;;;32.44
71807;BMP280;59655;42.590;23.364;2023-07-20T13:17:40;91172.41;;;32.68
71807;BMP280;59655;42.590;23.364;2023-07-20T13:20:07;91177.25;;;32.67
71807;BMP280;59655;42.590;23.364;2023-07-20T13:22:35;91174.41;;;32.77
71807;BMP280;59655;42.590;23.364;2023-07-20T13:25:00;91179.94;;;32.73
71807;BMP280;59655;42.590;23.364;2023-07-20T13:27:26;91172.69;;;32.31
71807;BMP280;59655;42.590;23.364;2023-07-20T13:29:52;91175.41;;;32.37
71807;BMP280;59655;42.590;23.364;2023-07-20T13:32:17;91176.31;;;32.95
71807;BMP280;59655;42.590;23.364;2023-07-20T13:34:43;91182.19;;;32.50
71807;BMP280;59655;42.590;23.364;2023-07-20T13:37:09;91172.31;;;32.80
71807;BMP280;59655;42.590;23.364;2023-07-20T13:39:34;91168.53;;;33.20
71807;BMP280;59655;42.590;23.364;2023-07-20T13:42:00;91177.28;;;33.37
71807;BMP280;59655;42.590;23.364;2023-07-20T13:44:29;91165.88;;;33.12
71807;BMP280;59655;42.590;23.364;2023-07-20T13:46:54;91165.56;;;32.67
71807;BMP280;59655;42.590;23.364;2023-07-20T13:49:19;91172.66;;;33.19
71807;BMP280;59655;42.590;23.364;2023-07-20T13:51:45;91167.31;;;33.03
71807;BMP280;59655;42.590;23.364;2023-07-20T13:54:11;91172.47;;;33.37
71807;BMP280;59655;42.590;23.364;2023-07-20T13:56:37;91174.63;;;33.31
71807;BMP280;59655;42.590;23.364;2023-07-20T13:59:03;91166.50;;;33.17
71807;BMP280;59655;42.590;23.364;2023-07-20T14:01:28;91172.00;;;33.17
71807;BMP280;59655;42.590;23.364;2023-07-20T14:03:55;91170.38;;;33.40
71807;BMP280;59655;42.590;23.364;2023-07-20T14:06:21;91164.03;;;33.56
71807;BMP280;59655;42.590;23.364;2023-07-20T14:08:46;91168.81;;;33.55
71807;BMP280;59655;42.590;23.364;2023-07-20T14:11:13;91174.09;;;33.14